Time;durP1;ratioP1;P1;durP2;ratioP2;P2;SDS_P1;SDS_P2;PMS_P1;PMS_P2;Temp;Humidity;BMP_temperature;BMP_pressure;BME280_temperature;BME280_humidity;BME280_pressure;Samples;Min_cycle;Max_cycle;Signal;HPM_P1;HPM_P2
2022/04/14 00:02:25;;;;;;;18.80;12.43;;;;;;;;;;4991617;28;20079;-83
2022/04/14 00:04:51;;;;;;;19.33;12.50;;;;;;;;;;4993564;28;20450;-82
2022/04/14 00:07:17;;;;;;;18.52;11.55;;;;;;;;;;4972138;28;20438;-81
2022/04/14 00:09:43;;;;;;;18.75;12.23;;;;;;;;;;4974949;28;20050;-80
2022/04/14 00:12:09;;;;;;;16.25;12.13;;;;;;;;;;4992805;28;20065;-81
2022/04/14 00:14:35;;;;;;;22.15;12.45;;;;;;;;;;5003537;28;20120;-80
2022/04/14 00:17:01;;;;;;;22.38;13.18;;;;;;;;;;4977725;28;20392;-80
2022/04/14 00:19:27;;;;;;;25.25;14.27;;;;;;;;;;4977951;28;20140;-80
2022/04/14 00:21:53;;;;;;;21.08;13.80;;;;;;;;;;4977980;28;20049;-81
2022/04/14 00:24:19;;;;;;;17.45;12.60;;;;;;;;;;4980262;28;20046;-81
2022/04/14 00:26:46;;;;;;;24.75;13.32;;;;;;;;;;4969971;28;20059;-80
2022/04/14 00:29:12;;;;;;;21.50;14.20;;;;;;;;;;4989925;28;20397;-81
2022/04/14 00:31:38;;;;;;;20.42;13.38;;;;;;;;;;4978245;28;20065;-80
2022/04/14 00:34:04;;;;;;;19.20;13.65;;;;;;;;;;4976138;28;20104;-81
2022/04/14 00:36:33;;;;;;;20.27;14.30;;;;;;;;;;4966578;28;20050;-81
2022/04/14 00:38:59;;;;;;;18.35;14.02;;;;;;;;;;4975221;28;20081;-80
2022/04/14 00:41:26;;;;;;;23.55;14.45;;;;;;;;;;4996656;28;20124;-82
2022/04/14 00:43:53;;;;;;;25.10;15.38;;;;;;;;;;4994646;28;20492;-80
2022/04/14 00:46:19;;;;;;;21.92;15.27;;;;;;;;;;4973132;28;20049;-81
2022/04/14 00:48:46;;;;;;;23.50;14.27;;;;;;;;;;4974580;28;20054;-81
2022/04/14 00:51:12;;;;;;;20.83;13.98;;;;;;;;;;4980418;28;20041;-82
2022/04/14 00:53:39;;;;;;;21.05;14.73;;;;;;;;;;4991926;28;20037;-81
2022/04/14 00:56:06;;;;;;;24.40;13.98;;;;;;;;;;4971905;28;20052;-81
2022/04/14 00:58:32;;;;;;;19.55;14.02;;;;;;;;;;4959502;28;21054;-81
2022/04/14 01:00:59;;;;;;;23.35;14.75;;;;;;;;;;4975043;28;20074;-81
2022/04/14 01:03:25;;;;;;;22.40;15.23;;;;;;;;;;4975190;28;20092;-81
2022/04/14 01:05:53;;;;;;;19.75;14.75;;;;;;;;;;4971179;28;20061;-80
2022/04/14 01:08:19;;;;;;;23.92;15.50;;;;;;;;;;4974080;28;20188;-81
2022/04/14 01:10:47;;;;;;;25.25;16.52;;;;;;;;;;4969636;28;20771;-80
2022/04/14 01:13:18;;;;;;;26.63;16.15;;;;;;;;;;5010658;28;20042;-81
2022/04/14 01:15:48;;;;;;;24.45;16.50;;;;;;;;;;4986776;28;20054;-81
2022/04/14 01:18:14;;;;;;;25.83;14.82;;;;;;;;;;4990928;28;20054;-82
2022/04/14 01:20:44;;;;;;;25.05;15.13;;;;;;;;;;4964980;28;20042;-81
2022/04/14 01:23:11;;;;;;;23.95;16.80;;;;;;;;;;4992637;28;20382;-80
2022/04/14 01:25:38;;;;;;;25.67;16.27;;;;;;;;;;4990200;28;20042;-81
2022/04/14 01:28:04;;;;;;;25.77;15.57;;;;;;;;;;4991341;28;20068;-80
2022/04/14 01:30:31;;;;;;;19.92;15.02;;;;;;;;;;4990122;28;20053;-81
2022/04/14 01:32:57;;;;;;;24.15;15.85;;;;;;;;;;4970137;28;20081;-81
2022/04/14 01:35:24;;;;;;;25.33;15.07;;;;;;;;;;4972948;28;20100;-81
2022/04/14 01:37:51;;;;;;;24.77;17.65;;;;;;;;;;4974358;28;20049;-81
2022/04/14 01:40:17;;;;;;;27.02;16.80;;;;;;;;;;4991047;28;20354;-81
2022/04/14 01:42:43;;;;;;;27.52;17.27;;;;;;;;;;4989718;28;20050;-81
2022/04/14 01:45:10;;;;;;;31.65;18.10;;;;;;;;;;4974173;28;20049;-81
2022/04/14 01:47:43;;;;;;;24.98;17.77;;;;;;;;;;4973760;28;20088;-81
2022/04/14 01:50:10;;;;;;;26.97;17.83;;;;;;;;;;4977574;28;20048;-81
2022/04/14 01:52:37;;;;;;;25.45;17.70;;;;;;;;;;4974918;28;20049;-81
2022/04/14 01:55:04;;;;;;;27.33;18.35;;;;;;;;;;4989919;28;20041;-82
2022/04/14 01:57:30;;;;;;;25.60;16.85;;;;;;;;;;4957814;28;20034;-82
2022/04/14 01:59:58;;;;;;;28.30;18.67;;;;;;;;;;4977816;28;20441;-81
2022/04/14 02:02:24;;;;;;;29.83;17.70;;;;;;;;;;4972519;28;20038;-81
2022/04/14 02:04:51;;;;;;;31.48;18.15;;;;;;;;;;4960322;28;20046;-81
2022/04/14 02:07:18;;;;;;;26.10;18.27;;;;;;;;;;4977694;28;20388;-81
2022/04/14 02:09:44;;;;;;;27.48;18.42;;;;;;;;;;4991499;28;20061;-81
2022/04/14 02:12:11;;;;;;;28.58;19.60;;;;;;;;;;4975465;28;20049;-81
2022/04/14 02:14:37;;;;;;;26.10;18.65;;;;;;;;;;4962138;28;20069;-81
2022/04/14 02:17:03;;;;;;;29.30;20.75;;;;;;;;;;4963812;28;20382;-81
2022/04/14 02:19:30;;;;;;;38.50;22.00;;;;;;;;;;4977017;28;20050;-81
2022/04/14 02:21:58;;;;;;;36.45;22.02;;;;;;;;;;4982560;28;20045;-81
2022/04/14 02:24:25;;;;;;;34.80;22.20;;;;;;;;;;4988291;28;20046;-81
2022/04/14 02:26:51;;;;;;;33.97;21.95;;;;;;;;;;4994576;28;20046;-80
2022/04/14 02:29:17;;;;;;;41.97;23.20;;;;;;;;;;4996496;28;20056;-80
2022/04/14 02:31:43;;;;;;;38.50;23.05;;;;;;;;;;4976561;28;21907;-81
2022/04/14 02:34:09;;;;;;;36.80;24.38;;;;;;;;;;4992252;28;20084;-81
2022/04/14 02:36:35;;;;;;;40.63;23.98;;;;;;;;;;4971619;28;20054;-81
2022/04/14 02:39:01;;;;;;;43.85;26.08;;;;;;;;;;4991511;28;20129;-81
2022/04/14 02:41:27;;;;;;;36.63;25.50;;;;;;;;;;4973846;28;20445;-81
2022/04/14 02:43:54;;;;;;;38.15;24.08;;;;;;;;;;4975538;28;20141;-81
2022/04/14 02:46:20;;;;;;;44.78;26.38;;;;;;;;;;4994385;28;20096;-81
2022/04/14 02:48:46;;;;;;;41.75;25.50;;;;;;;;;;4975386;28;20397;-81
2022/04/14 02:51:12;;;;;;;38.38;25.35;;;;;;;;;;4962853;28;20440;-81
2022/04/14 02:53:38;;;;;;;45.92;28.38;;;;;;;;;;4975830;28;20050;-81
2022/04/14 02:56:05;;;;;;;40.47;26.60;;;;;;;;;;4979022;28;20124;-81
2022/04/14 02:58:32;;;;;;;40.28;25.95;;;;;;;;;;4962695;28;20053;-81
2022/04/14 03:00:58;;;;;;;37.47;26.50;;;;;;;;;;4990679;28;20042;-81
2022/04/14 03:03:26;;;;;;;41.75;27.73;;;;;;;;;;4993710;28;20045;-81
2022/04/14 03:05:52;;;;;;;43.15;28.08;;;;;;;;;;4991446;28;20385;-81
2022/04/14 03:08:18;;;;;;;43.00;26.65;;;;;;;;;;4968133;28;20054;-81
2022/04/14 03:10:45;;;;;;;43.45;26.55;;;;;;;;;;4977851;28;20060;-81
2022/04/14 03:13:11;;;;;;;39.53;28.08;;;;;;;;;;4996154;28;20057;-81
2022/04/14 03:15:37;;;;;;;44.13;27.27;;;;;;;;;;4972900;28;20121;-81
2022/04/14 03:18:03;;;;;;;47.35;28.98;;;;;;;;;;4989742;28;20045;-81
2022/04/14 03:20:29;;;;;;;54.60;30.38;;;;;;;;;;4994419;28;20054;-80
2022/04/14 03:22:58;;;;;;;43.17;27.05;;;;;;;;;;4977731;28;20034;-80
2022/04/14 03:25:24;;;;;;;46.35;29.38;;;;;;;;;;4993793;28;20108;-81
2022/04/14 03:27:51;;;;;;;53.20;29.85;;;;;;;;;;4995512;28;20381;-79
2022/04/14 03:30:17;;;;;;;47.10;30.10;;;;;;;;;;4978763;28;20050;-79
2022/04/14 03:32:46;;;;;;;47.55;29.17;;;;;;;;;;4991630;28;20157;-79
2022/04/14 03:35:13;;;;;;;48.90;28.55;;;;;;;;;;4991765;28;20058;-80
2022/04/14 03:37:39;;;;;;;43.13;28.33;;;;;;;;;;4992742;28;20047;-80
2022/04/14 03:40:06;;;;;;;40.25;27.63;;;;;;;;;;4999159;28;20494;-80
2022/04/14 03:42:32;;;;;;;50.78;29.58;;;;;;;;;;4968166;28;20105;-80
2022/04/14 03:44:58;;;;;;;43.45;27.58;;;;;;;;;;4961575;28;20049;-79
2022/04/14 03:47:25;;;;;;;44.58;27.95;;;;;;;;;;4965104;28;20059;-81
2022/04/14 03:49:51;;;;;;;47.83;28.67;;;;;;;;;;4999286;28;20071;-80
2022/04/14 03:52:18;;;;;;;44.78;29.92;;;;;;;;;;4955246;28;20058;-79
2022/04/14 03:54:44;;;;;;;36.92;26.48;;;;;;;;;;4972362;28;20041;-80
2022/04/14 03:57:11;;;;;;;58.15;31.75;;;;;;;;;;4991695;28;20436;-80
2022/04/14 03:59:37;;;;;;;48.63;29.60;;;;;;;;;;4981105;28;20053;-80
2022/04/14 04:02:04;;;;;;;61.60;33.60;;;;;;;;;;4977755;28;20050;-80
2022/04/14 04:04:31;;;;;;;42.45;28.35;;;;;;;;;;4975435;28;20046;-80
2022/04/14 04:06:58;;;;;;;43.65;28.50;;;;;;;;;;4978749;28;20065;-80
2022/04/14 04:09:26;;;;;;;51.33;30.75;;;;;;;;;;4990965;28;20477;-79
2022/04/14 04:11:52;;;;;;;49.20;30.48;;;;;;;;;;4971201;28;20571;-80
2022/04/14 04:14:18;;;;;;;51.13;32.60;;;;;;;;;;4963670;28;20074;-79
2022/04/14 04:16:45;;;;;;;56.63;33.63;;;;;;;;;;4991584;28;20038;-79
2022/04/14 04:19:11;;;;;;;57.28;34.38;;;;;;;;;;4988524;28;20046;-82
2022/04/14 04:21:37;;;;;;;50.50;30.38;;;;;;;;;;4992773;28;20081;-79
2022/04/14 04:24:03;;;;;;;54.22;31.58;;;;;;;;;;4984939;28;20104;-78
2022/04/14 04:26:30;;;;;;;55.92;34.08;;;;;;;;;;4985947;28;20100;-83
2022/04/14 04:28:56;;;;;;;51.97;33.50;;;;;;;;;;4979617;28;20045;-82
2022/04/14 04:31:22;;;;;;;53.80;33.33;;;;;;;;;;4989095;28;20069;-82
2022/04/14 04:33:51;;;;;;;51.55;33.13;;;;;;;;;;4970943;28;20050;-84
2022/04/14 04:36:17;;;;;;;53.28;31.52;;;;;;;;;;4989582;28;20589;-84
2022/04/14 04:38:43;;;;;;;52.65;34.58;;;;;;;;;;4956881;28;20125;-82
2022/04/14 04:41:10;;;;;;;48.65;31.38;;;;;;;;;;4956571;28;20176;-79
2022/04/14 04:43:36;;;;;;;56.80;35.13;;;;;;;;;;4992361;28;20485;-82
2022/04/14 04:46:02;;;;;;;65.05;37.88;;;;;;;;;;4957638;28;20046;-84
2022/04/14 04:48:28;;;;;;;54.20;34.33;;;;;;;;;;4975869;28;20057;-83
2022/04/14 04:50:54;;;;;;;68.00;39.65;;;;;;;;;;4971539;28;20052;-86
2022/04/14 04:53:20;;;;;;;63.30;39.47;;;;;;;;;;4973296;28;20100;-80
2022/04/14 04:55:46;;;;;;;70.32;43.53;;;;;;;;;;4984881;28;20045;-81
2022/04/14 04:58:12;;;;;;;74.97;44.35;;;;;;;;;;4973538;28;20077;-83
2022/04/14 05:00:39;;;;;;;64.28;38.83;;;;;;;;;;4977956;28;20054;-81
2022/04/14 05:03:09;;;;;;;79.93;45.60;;;;;;;;;;4970689;28;20042;-81
2022/04/14 05:05:35;;;;;;;71.07;43.35;;;;;;;;;;4971073;28;20064;-85
2022/04/14 05:08:02;;;;;;;88.72;46.97;;;;;;;;;;4990846;28;20099;-84
2022/04/14 05:10:28;;;;;;;88.05;49.80;;;;;;;;;;4961985;28;20050;-85
2022/04/14 05:12:55;;;;;;;85.03;49.08;;;;;;;;;;4984152;28;20042;-85
2022/04/14 05:15:21;;;;;;;88.03;50.67;;;;;;;;;;4996139;28;20128;-84
2022/04/14 05:17:47;;;;;;;95.88;50.55;;;;;;;;;;4959966;28;20042;-85
2022/04/14 05:20:13;;;;;;;88.57;49.78;;;;;;;;;;4987611;28;20096;-83
2022/04/14 05:22:39;;;;;;;91.90;51.67;;;;;;;;;;4949809;28;20049;-83
2022/04/14 05:25:06;;;;;;;88.45;52.35;;;;;;;;;;4960453;28;20054;-84
2022/04/14 05:27:32;;;;;;;87.28;49.28;;;;;;;;;;4962428;28;20046;-85
2022/04/14 05:29:58;;;;;;;93.78;52.20;;;;;;;;;;4957639;28;20176;-84
2022/04/14 05:32:24;;;;;;;70.25;43.58;;;;;;;;;;4959773;28;20140;-84
2022/04/14 05:34:50;;;;;;;77.60;47.33;;;;;;;;;;4957317;28;20050;-84
2022/04/14 05:37:16;;;;;;;66.85;45.22;;;;;;;;;;4976216;28;20073;-84
2022/04/14 05:39:42;;;;;;;66.18;43.55;;;;;;;;;;4977110;28;20052;-84
2022/04/14 05:42:08;;;;;;;60.47;41.33;;;;;;;;;;4960612;28;20049;-84
2022/04/14 05:44:34;;;;;;;63.97;40.53;;;;;;;;;;4984627;28;20042;-86
2022/04/14 05:47:00;;;;;;;68.45;42.60;;;;;;;;;;4955948;28;20056;-87
2022/04/14 05:49:26;;;;;;;69.38;41.85;;;;;;;;;;4965476;28;20429;-84
2022/04/14 05:51:52;;;;;;;70.60;42.97;;;;;;;;;;4960491;28;20050;-82
2022/04/14 05:54:18;;;;;;;57.42;41.17;;;;;;;;;;4983190;28;20050;-85
2022/04/14 05:56:45;;;;;;;64.35;40.35;;;;;;;;;;4961482;28;20050;-84
2022/04/14 05:59:16;;;;;;;63.20;40.70;;;;;;;;;;4961392;28;20068;-85
2022/04/14 06:01:46;;;;;;;53.38;38.65;;;;;;;;;;4961500;28;20054;-84
2022/04/14 06:04:12;;;;;;;53.63;37.67;;;;;;;;;;4973554;28;20130;-85
2022/04/14 06:06:39;;;;;;;51.88;34.95;;;;;;;;;;4961107;28;20057;-84
2022/04/14 06:09:05;;;;;;;53.00;35.70;;;;;;;;;;4991313;28;20049;-84
2022/04/14 06:11:31;;;;;;;48.55;33.83;;;;;;;;;;4959466;28;20074;-84
2022/04/14 06:13:57;;;;;;;40.03;30.35;;;;;;;;;;4967245;28;20054;-86
2022/04/14 06:16:23;;;;;;;42.03;30.75;;;;;;;;;;4961623;28;20493;-85
2022/04/14 06:18:50;;;;;;;49.85;37.58;;;;;;;;;;4968278;28;20439;-85
2022/04/14 06:21:16;;;;;;;51.40;38.40;;;;;;;;;;4980496;28;20514;-84
2022/04/14 06:23:42;;;;;;;55.95;41.38;;;;;;;;;;4970538;28;20433;-84
2022/04/14 06:26:08;;;;;;;52.70;40.20;;;;;;;;;;4973635;28;20486;-84
2022/04/14 06:28:34;;;;;;;49.05;32.05;;;;;;;;;;4961836;28;20132;-84
2022/04/14 06:31:01;;;;;;;37.88;29.90;;;;;;;;;;4990059;28;21203;-85
2022/04/14 06:33:30;;;;;;;41.88;31.38;;;;;;;;;;4956929;28;20512;-85
2022/04/14 06:35:57;;;;;;;43.10;31.15;;;;;;;;;;4975942;28;20073;-86
2022/04/14 06:38:25;;;;;;;45.60;32.72;;;;;;;;;;4992229;28;20080;-85
2022/04/14 06:40:51;;;;;;;41.47;30.17;;;;;;;;;;4994429;28;20041;-84
2022/04/14 06:43:17;;;;;;;42.60;31.00;;;;;;;;;;4959706;28;20041;-85
2022/04/14 06:45:43;;;;;;;47.28;31.08;;;;;;;;;;4985345;28;20052;-85
2022/04/14 06:48:10;;;;;;;;;;;;;;;;;;4976373;28;20054;-84
2022/04/14 06:50:36;;;;;;;;;;;;;;;;;;4993368;28;19928;-85
2022/04/14 06:53:01;;;;;;;;;;;;;;;;;;4998068;28;19921;-84
2022/04/14 06:55:27;;;;;;;;;;;;;;;;;;4990156;28;20364;-84
2022/04/14 06:57:53;;;;;;;;;;;;;;;;;;5008998;28;19922;-85
2022/04/14 07:00:21;;;;;;;;;;;;;;;;;;4997315;28;19929;-86
2022/04/14 07:02:47;;;;;;;;;;;;;;;;;;4990337;28;20369;-83
2022/04/14 07:05:13;;;;;;;;;;;;;;;;;;4997675;28;19921;-84
2022/04/14 07:07:39;;;;;;;;;;;;;;;;;;4985609;28;19922;-85
2022/04/14 07:10:05;;;;;;;;;;;;;;;;;;4969696;28;19925;-85
2022/04/14 07:12:31;;;;;;;;;;;;;;;;;;4970511;28;19918;-85
2022/04/14 07:14:57;;;;;;;;;;;;;;;;;;4970414;28;19968;-84
2022/04/14 07:17:23;;;;;;;;;;;;;;;;;;4966525;28;20016;-86
2022/04/14 07:19:50;;;;;;;;;;;;;;;;;;4988086;28;19988;-85
2022/04/14 07:22:17;;;;;;;;;;;;;;;;;;4981188;28;20404;-84
2022/04/14 07:24:43;;;;;;;;;;;;;;;;;;4970841;28;19971;-85
2022/04/14 07:27:10;;;;;;;;;;;;;;;;;;4974229;28;21201;-84
2022/04/14 07:29:36;;;;;;;;;;;;;;;;;;4990269;28;19924;-84
2022/04/14 07:32:02;;;;;;;;;;;;;;;;;;4991107;28;19917;-84
2022/04/14 07:34:28;;;;;;;;;;;;;;;;;;4992668;28;19932;-84
2022/04/14 07:36:54;;;;;;;;;;;;;;;;;;4999539;28;20371;-86
2022/04/14 07:39:20;;;;;;;;;;;;;;;;;;4992911;28;19946;-84
2022/04/14 07:41:46;;;;;;;;;;;;;;;;;;4989398;28;19929;-84
2022/04/14 07:44:12;;;;;;;;;;;;;;;;;;4983534;28;20739;-82
2022/04/14 07:46:38;;;;;;;;;;;;;;;;;;4973550;28;20311;-82
2022/04/14 07:49:05;;;;;;;;;;;;;;;;;;4968070;28;19949;-83
2022/04/14 07:51:31;;;;;;;;;;;;;;;;;;4965116;28;19922;-84
2022/04/14 07:53:57;;;;;;;;;;;;;;;;;;4966497;28;20424;-84
2022/04/14 07:56:23;;;;;;;;;;;;;;;;;;4982984;28;19969;-84
2022/04/14 07:58:49;;;;;;;;;;;;;;;;;;4972426;28;19921;-85
2022/04/14 08:01:16;;;;;;;;;;;;;;;;;;4972622;28;19940;-83
2022/04/14 08:03:42;;;;;;;;;;;;;;;;;;4964668;28;20404;-83
2022/04/14 08:06:08;;;;;;;;;;;;;;;;;;4980961;28;19929;-84
2022/04/14 08:08:34;;;;;;;;;;;;;;;;;;4978419;28;19969;-84
2022/04/14 08:11:03;;;;;;;;;;;;;;;;;;4987931;28;19968;-84
2022/04/14 08:13:30;;;;;;;;;;;;;;;;;;4986606;28;19926;-84
2022/04/14 08:16:01;;;;;;;;;;;;;;;;;;4983818;28;19921;-85
2022/04/14 08:18:27;;;;;;;;;;;;;;;;;;4990506;28;19929;-83
2022/04/14 08:20:53;;;;;;;;;;;;;;;;;;4974634;28;20028;-83
2022/04/14 08:23:19;;;;;;;;;;;;;;;;;;4987962;28;20622;-79
2022/04/14 08:25:45;;;;;;;;;;;;;;;;;;5010328;28;19976;-81
2022/04/14 08:28:11;;;;;;;;;;;;;;;;;;4991098;28;19922;-82
2022/04/14 08:30:37;;;;;;;;;;;;;;;;;;4973297;28;20380;-81
2022/04/14 08:33:03;;;;;;;;;;;;;;;;;;4970658;28;20600;-81
2022/04/14 08:35:29;;;;;;;;;;;;;;;;;;4992341;28;19968;-81
2022/04/14 08:37:55;;;;;;;;;;;;;;;;;;4985323;28;19921;-80
2022/04/14 08:40:24;;;;;;;;;;;;;;;;;;4985477;28;19968;-81
2022/04/14 08:42:49;;;;;;;;;;;;;;;;;;4992597;28;19932;-80
2022/04/14 08:45:15;;;;;;;;;;;;;;;;;;5012243;28;19922;-83
2022/04/14 08:47:41;;;;;;;;;;;;;;;;;;4987539;28;19984;-82
2022/04/14 08:50:07;;;;;;;;;;;;;;;;;;4984038;28;19955;-81
2022/04/14 08:52:34;;;;;;;;;;;;;;;;;;4985767;28;19921;-80
2022/04/14 08:55:00;;;;;;;;;;;;;;;;;;4982562;28;20371;-80
2022/04/14 08:57:26;;;;;;;;;;;;;;;;;;4988056;28;20007;-81
2022/04/14 08:59:52;;;;;;;;;;;;;;;;;;4980775;28;19948;-83
2022/04/14 09:02:24;;;;;;;;;;;;;;;;;;4987276;28;20360;-79
2022/04/14 09:04:50;;;;;;;;;;;;;;;;;;4984644;28;19983;-81
2022/04/14 09:07:16;;;;;;;;;;;;;;;;;;4988103;28;19972;-79
2022/04/14 09:09:42;;;;;;;;;;;;;;;;;;4985786;28;20147;-84
2022/04/14 09:12:08;;;;;;;;;;;;;;;;;;4970682;28;20349;-79
2022/04/14 09:14:34;;;;;;;15.10;11.05;;;;;;;;;;5012077;28;19929;-81
2022/04/14 09:17:02;;;;;;;12.10;9.77;;;;;;;;;;4988308;28;20056;-81
2022/04/14 09:19:31;;;;;;;13.95;10.95;;;;;;;;;;4992607;28;20126;-81
2022/04/14 09:21:58;;;;;;;15.45;10.27;;;;;;;;;;4986767;28;20053;-81
2022/04/14 09:24:43;;;;;;;13.80;10.63;;;;;;;;;;4972759;28;20049;-81
2022/04/14 09:27:10;;;;;;;12.85;10.10;;;;;;;;;;4999228;28;20281;-80
2022/04/14 09:29:47;;;;;;;14.80;9.88;;;;;;;;;;4985457;28;20404;-80
2022/04/14 09:32:26;;;;;;;13.30;9.35;;;;;;;;;;5004890;28;20046;-82
2022/04/14 09:34:52;;;;;;;12.82;9.57;;;;;;;;;;4990269;28;20089;-82
2022/04/14 09:37:20;;;;;;;14.93;10.80;;;;;;;;;;4991487;28;20034;-82
2022/04/14 09:39:52;;;;;;;13.30;10.70;;;;;;;;;;4989098;28;20099;-82
2022/04/14 09:42:18;;;;;;;12.65;9.18;;;;;;;;;;4976458;28;20482;-82
2022/04/14 09:44:44;;;;;;;15.63;9.77;;;;;;;;;;5009598;28;20481;-83
2022/04/14 09:47:10;;;;;;;9.63;7.18;;;;;;;;;;4988989;28;20145;-82
2022/04/14 09:49:42;;;;;;;7.47;6.05;;;;;;;;;;4975041;28;20060;-83
2022/04/14 09:52:08;;;;;;;10.90;7.07;;;;;;;;;;5006649;28;20175;-83
2022/04/14 09:54:34;;;;;;;9.88;6.95;;;;;;;;;;4988721;28;20429;-84
2022/04/14 09:57:01;;;;;;;10.43;7.13;;;;;;;;;;5004644;28;20045;-84
2022/04/14 09:59:30;;;;;;;9.30;7.25;;;;;;;;;;4976485;28;20050;-83
2022/04/14 10:02:16;;;;;;;12.90;8.75;;;;;;;;;;5002508;28;20096;-84
2022/04/14 10:04:43;;;;;;;11.82;8.23;;;;;;;;;;4984901;28;20053;-84
2022/04/14 10:07:11;;;;;;;12.50;8.23;;;;;;;;;;4967894;28;20076;-83
2022/04/14 10:09:41;;;;;;;10.02;7.97;;;;;;;;;;5001442;28;20046;-83
2022/04/14 10:12:29;;;;;;;9.70;7.03;;;;;;;;;;4983653;28;20091;-83
2022/04/14 10:14:58;;;;;;;10.52;8.15;;;;;;;;;;4966682;28;20041;-81
2022/04/14 10:17:28;;;;;;;10.48;8.00;;;;;;;;;;4982253;28;20050;-83
2022/04/14 10:19:55;;;;;;;10.70;7.03;;;;;;;;;;5001295;28;20137;-78
2022/04/14 10:22:21;;;;;;;10.02;6.78;;;;;;;;;;4996998;28;20045;-82
2022/04/14 10:24:47;;;;;;;9.57;6.22;;;;;;;;;;4984472;28;20045;-79
2022/04/14 10:27:16;;;;;;;10.43;5.85;;;;;;;;;;4988567;28;20042;-82
2022/04/14 10:29:43;;;;;;;10.13;6.00;;;;;;;;;;4983462;28;20060;-80
2022/04/14 10:32:11;;;;;;;7.32;4.93;;;;;;;;;;4971358;28;20050;-86
2022/04/14 10:34:38;;;;;;;9.98;5.60;;;;;;;;;;4975215;28;20054;-86
2022/04/14 10:37:07;;;;;;;7.35;4.60;;;;;;;;;;4987535;28;20088;-87
2022/04/14 10:39:36;;;;;;;7.03;4.60;;;;;;;;;;4991079;28;20138;-91
2022/04/14 10:42:03;;;;;;;7.75;4.55;;;;;;;;;;4993739;28;20054;-90
2022/04/14 10:44:49;;;;;;;7.38;4.30;;;;;;;;;;4995812;28;20532;-89
2022/04/14 10:47:34;;;;;;;6.40;3.90;;;;;;;;;;4993712;28;20092;-83
2022/04/14 10:50:00;;;;;;;7.95;3.25;;;;;;;;;;4986934;28;20144;-88
2022/04/14 10:52:27;;;;;;;4.00;2.60;;;;;;;;;;4992718;28;20062;-89
2022/04/14 10:54:57;;;;;;;4.78;2.67;;;;;;;;;;4986061;28;20050;-87
2022/04/14 10:57:44;;;;;;;5.05;3.05;;;;;;;;;;4992467;28;20422;-90
2022/04/14 11:00:19;;;;;;;8.15;3.05;;;;;;;;;;5007972;28;20042;-88
2022/04/14 11:03:04;;;;;;;4.15;2.50;;;;;;;;;;4992126;28;20048;-86
2022/04/14 11:05:37;;;;;;;6.57;2.60;;;;;;;;;;4988259;28;20089;-88
2022/04/14 11:08:24;;;;;;;6.70;2.50;;;;;;;;;;5003567;28;20136;-87
2022/04/14 11:11:10;;;;;;;7.78;2.22;;;;;;;;;;5011997;28;20129;-88
2022/04/14 11:13:59;;;;;;;6.50;2.38;;;;;;;;;;4995094;28;20041;-89
2022/04/14 11:16:45;;;;;;;3.42;1.98;;;;;;;;;;4979731;28;20049;-89
2022/04/14 11:19:17;;;;;;;3.13;2.28;;;;;;;;;;5000907;28;20045;-88
2022/04/14 11:22:02;;;;;;;2.65;1.30;;;;;;;;;;4995939;28;20038;-89
2022/04/14 11:24:39;;;;;;;6.28;1.63;;;;;;;;;;5021416;28;20137;-88
2022/04/14 11:27:15;;;;;;;6.15;3.05;;;;;;;;;;4995892;28;20421;-87
2022/04/14 11:29:43;;;;;;;6.50;2.88;;;;;;;;;;4999313;28;20100;-87
2022/04/14 11:32:09;;;;;;;5.70;1.65;;;;;;;;;;4998077;28;20053;-87
2022/04/14 11:34:36;;;;;;;7.40;2.40;;;;;;;;;;4993700;28;20099;-87
2022/04/14 11:37:02;;;;;;;7.05;3.20;;;;;;;;;;4978527;28;20044;-87
2022/04/14 11:39:29;;;;;;;7.25;4.07;;;;;;;;;;5011732;28;20176;-89
2022/04/14 11:42:08;;;;;;;7.88;4.13;;;;;;;;;;5011541;28;20042;-88
2022/04/14 11:44:35;;;;;;;7.10;4.72;;;;;;;;;;4992103;28;20034;-88
2022/04/14 11:47:02;;;;;;;7.35;4.95;;;;;;;;;;4988691;28;20065;-84
2022/04/14 11:49:30;;;;;;;7.53;4.63;;;;;;;;;;5010970;28;20042;-88
2022/04/14 11:52:03;;;;;;;8.88;4.88;;;;;;;;;;4992331;28;20249;-87
2022/04/14 11:54:29;;;;;;;9.00;5.40;;;;;;;;;;4996727;28;20077;-85
2022/04/14 11:56:57;;;;;;;10.23;5.40;;;;;;;;;;5007719;28;20140;-88
2022/04/14 11:59:30;;;;;;;8.88;6.00;;;;;;;;;;5017315;28;20046;-89
2022/04/14 12:01:59;;;;;;;7.80;5.38;;;;;;;;;;5008931;28;20172;-88
2022/04/14 12:04:25;;;;;;;11.27;6.47;;;;;;;;;;4998821;28;20065;-89
2022/04/14 12:06:52;;;;;;;8.40;4.80;;;;;;;;;;4996466;28;20050;-89
2022/04/14 12:09:24;;;;;;;5.85;4.43;;;;;;;;;;5002866;28;20112;-88
2022/04/14 12:11:50;;;;;;;10.80;4.97;;;;;;;;;;4991188;28;20103;-87
2022/04/14 12:14:17;;;;;;;7.65;3.65;;;;;;;;;;4977790;28;20041;-88
2022/04/14 12:16:50;;;;;;;8.77;4.18;;;;;;;;;;5013760;28;20042;-89
2022/04/14 12:19:16;;;;;;;8.90;3.53;;;;;;;;;;4987338;28;20465;-87
2022/04/14 12:21:42;;;;;;;8.73;3.30;;;;;;;;;;5000521;28;20056;-85
2022/04/14 12:24:08;;;;;;;5.72;3.42;;;;;;;;;;4991242;28;20045;-86
2022/04/14 12:26:37;;;;;;;6.20;3.15;;;;;;;;;;4960916;28;20061;-86
2022/04/14 12:29:07;;;;;;;7.43;3.50;;;;;;;;;;4998199;28;20125;-88
2022/04/14 12:31:33;;;;;;;8.98;4.00;;;;;;;;;;4997220;28;20068;-87
2022/04/14 12:34:00;;;;;;;6.55;3.88;;;;;;;;;;4978625;28;20084;-88
2022/04/14 12:36:34;;;;;;;5.22;3.75;;;;;;;;;;4996361;28;20045;-87
2022/04/14 12:39:00;;;;;;;7.75;3.55;;;;;;;;;;5015221;28;20050;-87
2022/04/14 12:41:33;;;;;;;8.65;3.60;;;;;;;;;;5003646;28;20069;-88
2022/04/14 12:43:59;;;;;;;7.75;3.45;;;;;;;;;;4993387;28;20392;-87
2022/04/14 12:46:41;;;;;;;7.18;2.58;;;;;;;;;;4991138;28;20323;-86
2022/04/14 12:49:12;;;;;;;6.95;2.90;;;;;;;;;;5010059;28;20552;-86
2022/04/14 12:51:39;;;;;;;8.52;3.35;;;;;;;;;;4989074;28;20053;-87
2022/04/14 12:54:06;;;;;;;7.20;3.90;;;;;;;;;;5011200;28;20141;-88
2022/04/14 12:56:33;;;;;;;8.13;3.70;;;;;;;;;;4989580;28;20046;-87
2022/04/14 12:59:16;;;;;;;7.60;3.55;;;;;;;;;;4991506;28;20056;-86
2022/04/14 13:01:45;;;;;;;6.07;3.22;;;;;;;;;;4990539;28;20133;-85
2022/04/14 13:04:11;;;;;;;8.25;3.45;;;;;;;;;;4973836;28;20041;-86
2022/04/14 13:06:37;;;;;;;8.02;3.28;;;;;;;;;;5003939;28;20425;-86
2022/04/14 13:09:16;;;;;;;5.75;3.33;;;;;;;;;;5004897;28;20048;-87
2022/04/14 13:11:42;;;;;;;7.68;3.97;;;;;;;;;;5008498;28;20535;-87
2022/04/14 13:14:35;;;;;;;6.68;3.60;;;;;;;;;;5008215;28;20045;-87
2022/04/14 13:17:02;;;;;;;9.88;3.88;;;;;;;;;;4984810;28;20106;-85
2022/04/14 13:19:29;;;;;;;8.18;4.10;;;;;;;;;;5011807;28;20795;-85
2022/04/14 13:21:55;;;;;;;9.07;4.38;;;;;;;;;;5001289;28;20378;-88
2022/04/14 13:24:24;;;;;;;6.43;3.80;;;;;;;;;;5008959;28;20085;-88
2022/04/14 13:26:53;;;;;;;10.75;4.40;;;;;;;;;;4998466;28;20085;-86
2022/04/14 13:29:21;;;;;;;11.02;4.18;;;;;;;;;;4984266;28;20493;-87
2022/04/14 13:31:47;;;;;;;7.45;4.28;;;;;;;;;;4990911;28;20380;-86
2022/04/14 13:34:13;;;;;;;10.38;4.65;;;;;;;;;;5007993;28;20064;-87
2022/04/14 13:36:39;;;;;;;14.88;3.72;;;;;;;;;;4997376;28;20042;-86
2022/04/14 13:39:05;;;;;;;6.72;4.18;;;;;;;;;;4999255;28;20545;-88
2022/04/14 13:41:31;;;;;;;9.65;4.25;;;;;;;;;;5014518;28;20050;-88
2022/04/14 13:43:59;;;;;;;8.65;4.63;;;;;;;;;;4986857;28;20071;-88
2022/04/14 13:46:25;;;;;;;10.38;4.78;;;;;;;;;;4992513;28;20053;-85
2022/04/14 13:48:51;;;;;;;14.90;9.73;;;;;;;;;;5000624;28;20088;-89
2022/04/14 13:51:18;;;;;;;16.45;10.65;;;;;;;;;;5010458;28;20033;-88
2022/04/14 13:53:44;;;;;;;17.85;10.07;;;;;;;;;;4976659;28;20081;-89
2022/04/14 13:56:10;;;;;;;16.40;9.95;;;;;;;;;;4991219;28;20053;-89
2022/04/14 13:58:36;;;;;;;13.05;9.18;;;;;;;;;;5003782;28;20100;-89
2022/04/14 14:01:06;;;;;;;14.20;9.20;;;;;;;;;;5005404;28;20047;-84
2022/04/14 14:03:32;;;;;;;14.75;9.70;;;;;;;;;;5026202;28;20134;-85
2022/04/14 14:05:59;;;;;;;16.67;9.45;;;;;;;;;;5029552;28;20033;-86
2022/04/14 14:08:25;;;;;;;16.55;9.68;;;;;;;;;;5027214;28;20058;-85
2022/04/14 14:10:51;;;;;;;13.85;9.50;;;;;;;;;;5022292;28;20045;-87
2022/04/14 14:13:18;;;;;;;15.82;8.93;;;;;;;;;;4963201;28;20042;-87
2022/04/14 14:15:44;;;;;;;17.30;9.75;;;;;;;;;;5007648;28;20521;-88
2022/04/14 14:18:10;;;;;;;18.73;9.95;;;;;;;;;;4997704;28;20045;-86
2022/04/14 14:20:36;;;;;;;16.77;9.43;;;;;;;;;;5000462;28;20470;-84
2022/04/14 14:23:03;;;;;;;13.95;8.30;;;;;;;;;;5004259;28;20046;-86
2022/04/14 14:25:30;;;;;;;13.38;8.32;;;;;;;;;;5000940;28;20050;-84
2022/04/14 14:27:57;;;;;;;15.23;8.18;;;;;;;;;;4977308;28;20049;-87
2022/04/14 14:30:23;;;;;;;12.13;6.90;;;;;;;;;;4979508;28;20480;-86
2022/04/14 14:32:49;;;;;;;12.95;6.15;;;;;;;;;;4987795;28;20050;-86
2022/04/14 14:35:15;;;;;;;11.52;6.25;;;;;;;;;;5008046;28;20022;-83
2022/04/14 14:37:45;;;;;;;9.43;5.90;;;;;;;;;;5018137;28;20025;-84
2022/04/14 14:40:12;;;;;;;10.52;6.47;;;;;;;;;;5026578;28;20029;-85
2022/04/14 14:42:38;;;;;;;7.70;4.82;;;;;;;;;;5017447;28;20130;-85
2022/04/14 14:45:05;;;;;;;9.63;4.05;;;;;;;;;;5013956;28;20505;-85
2022/04/14 14:47:31;;;;;;;6.20;3.85;;;;;;;;;;4990812;28;20042;-88
2022/04/14 14:49:57;;;;;;;5.45;3.30;;;;;;;;;;5006580;28;20062;-88